Time;durP1;ratioP1;P1;durP2;ratioP2;P2;SDS_P1;SDS_P2;PMS_P1;PMS_P2;Temp;Humidity;BMP_temperature;BMP_pressure;BME280_temperature;BME280_humidity;BME280_pressure;Samples;Min_cycle;Max_cycle;Signal;HPM_P1;HPM_P2
2022/06/26 00:01:26;;;;;;;6.88;5.93;;;;;;;;;;5092088;28;20058;-57
2022/06/26 00:03:53;;;;;;;9.23;6.05;;;;;;;;;;5091961;28;20506;-55
2022/06/26 00:06:21;;;;;;;7.25;6.13;;;;;;;;;;5092070;28;20040;-56
2022/06/26 00:08:48;;;;;;;7.45;6.38;;;;;;;;;;5090698;28;20052;-57
2022/06/26 00:11:16;;;;;;;8.98;6.50;;;;;;;;;;5092178;28;20036;-58
2022/06/26 00:13:43;;;;;;;8.25;5.70;;;;;;;;;;5091867;28;20492;-59
2022/06/26 00:16:11;;;;;;;10.60;6.18;;;;;;;;;;5090634;28;20556;-58
2022/06/26 00:18:40;;;;;;;6.75;5.78;;;;;;;;;;5090849;28;20047;-58
2022/06/26 00:21:08;;;;;;;8.07;5.57;;;;;;;;;;5091816;28;20044;-58
2022/06/26 00:23:35;;;;;;;7.20;6.25;;;;;;;;;;5092089;28;20036;-58
2022/06/26 00:26:04;;;;;;;8.15;6.15;;;;;;;;;;5095623;28;20499;-58
2022/06/26 00:28:31;;;;;;;8.40;6.93;;;;;;;;;;5095945;28;20039;-54
2022/06/26 00:30:58;;;;;;;9.55;6.10;;;;;;;;;;5094459;28;20050;-57
2022/06/26 00:33:26;;;;;;;6.35;5.70;;;;;;;;;;5096154;28;20040;-56
2022/06/26 00:35:53;;;;;;;7.03;6.13;;;;;;;;;;5095843;28;20044;-58
2022/06/26 00:38:20;;;;;;;6.53;5.82;;;;;;;;;;5095517;28;20032;-58
2022/06/26 00:40:48;;;;;;;10.25;6.20;;;;;;;;;;5094387;28;20040;-58
2022/06/26 00:43:15;;;;;;;6.35;5.30;;;;;;;;;;5095626;28;20040;-58
2022/06/26 00:45:43;;;;;;;9.13;6.90;;;;;;;;;;5095226;28;20040;-58
2022/06/26 00:48:10;;;;;;;7.65;6.25;;;;;;;;;;5094472;28;20044;-57
2022/06/26 00:50:37;;;;;;;8.05;6.32;;;;;;;;;;5095646;28;20089;-58
2022/06/26 00:53:05;;;;;;;7.88;6.15;;;;;;;;;;5094332;28;20040;-58
2022/06/26 00:55:33;;;;;;;7.75;6.47;;;;;;;;;;5093910;28;20502;-58
2022/06/26 00:58:00;;;;;;;7.07;6.28;;;;;;;;;;5095709;28;20044;-58
2022/06/26 01:00:28;;;;;;;8.38;6.07;;;;;;;;;;5095471;28;20039;-58
2022/06/26 01:02:56;;;;;;;7.85;6.20;;;;;;;;;;5094215;28;20086;-53
2022/06/26 01:05:24;;;;;;;7.47;5.97;;;;;;;;;;5095305;28;20043;-54
2022/06/26 01:07:54;;;;;;;7.28;6.07;;;;;;;;;;5095323;28;20043;-58
2022/06/26 01:10:25;;;;;;;6.10;5.38;;;;;;;;;;5094052;28;20128;-57
2022/06/26 01:12:53;;;;;;;6.60;5.93;;;;;;;;;;5095194;28;20047;-58
2022/06/26 01:15:21;;;;;;;7.50;6.63;;;;;;;;;;5094120;28;20044;-58
2022/06/26 01:17:49;;;;;;;6.93;6.22;;;;;;;;;;5094996;28;20040;-58
2022/06/26 01:20:17;;;;;;;7.53;6.10;;;;;;;;;;5093931;28;20073;-59
2022/06/26 01:22:44;;;;;;;7.05;6.15;;;;;;;;;;5093566;28;20051;-59
2022/06/26 01:25:12;;;;;;;8.05;6.00;;;;;;;;;;5093930;28;20418;-58
2022/06/26 01:27:43;;;;;;;7.10;5.82;;;;;;;;;;5093436;28;20131;-58
2022/06/26 01:30:14;;;;;;;7.97;7.05;;;;;;;;;;5093713;28;20051;-58
2022/06/26 01:32:42;;;;;;;6.63;5.88;;;;;;;;;;5093622;28;20036;-58
2022/06/26 01:35:09;;;;;;;7.25;5.75;;;;;;;;;;5093091;28;20054;-58
2022/06/26 01:37:44;;;;;;;6.65;5.95;;;;;;;;;;5093125;28;20136;-58
2022/06/26 01:40:12;;;;;;;6.38;5.75;;;;;;;;;;5093348;28;20051;-59
2022/06/26 01:42:39;;;;;;;6.15;5.50;;;;;;;;;;5093272;28;20104;-58
2022/06/26 01:45:07;;;;;;;6.85;5.32;;;;;;;;;;5093247;28;20063;-58
2022/06/26 01:47:34;;;;;;;8.30;5.38;;;;;;;;;;5094434;28;20066;-58
2022/06/26 01:50:02;;;;;;;6.63;5.40;;;;;;;;;;5093085;28;20072;-55
2022/06/26 01:52:30;;;;;;;6.68;5.38;;;;;;;;;;5093474;28;20056;-57
2022/06/26 01:54:57;;;;;;;7.50;5.72;;;;;;;;;;5093285;28;20089;-58
2022/06/26 01:57:25;;;;;;;6.38;5.65;;;;;;;;;;5093012;28;20036;-58
2022/06/26 01:59:57;;;;;;;5.63;4.85;;;;;;;;;;5093161;28;20094;-58
2022/06/26 02:02:26;;;;;;;5.88;5.15;;;;;;;;;;5092819;28;20113;-58
2022/06/26 02:04:53;;;;;;;6.53;5.80;;;;;;;;;;5094202;28;20549;-58
2022/06/26 02:07:20;;;;;;;6.25;5.20;;;;;;;;;;5092566;28;20067;-58
2022/06/26 02:15:28;;;;;;;7.80;5.57;;;;;;;;;;5074076;28;20381;-59
2022/06/26 02:18:01;;;;;;;5.15;4.65;;;;;;;;;;5072646;28;20036;-56
2022/06/26 02:20:29;;;;;;;5.53;4.80;;;;;;;;;;5080544;28;20090;-58
2022/06/26 02:22:56;;;;;;;6.70;5.60;;;;;;;;;;5092533;28;20048;-58
2022/06/26 02:25:24;;;;;;;6.75;5.20;;;;;;;;;;5092434;28;20036;-57
2022/06/26 02:27:53;;;;;;;6.25;5.10;;;;;;;;;;5093620;28;20066;-58
2022/06/26 02:30:21;;;;;;;6.85;5.47;;;;;;;;;;5092553;28;20040;-58
2022/06/26 02:32:48;;;;;;;7.47;5.18;;;;;;;;;;5092362;28;20032;-58
2022/06/26 02:35:16;;;;;;;8.23;5.38;;;;;;;;;;5093718;28;20048;-58
2022/06/26 02:37:43;;;;;;;5.35;4.85;;;;;;;;;;5092282;28;20072;-58
2022/06/26 02:40:11;;;;;;;5.57;4.82;;;;;;;;;;5092204;28;20044;-56
2022/06/26 02:42:39;;;;;;;6.10;4.80;;;;;;;;;;5093608;28;20036;-58
2022/06/26 02:45:07;;;;;;;6.18;5.18;;;;;;;;;;5093325;28;20120;-58
2022/06/26 02:47:34;;;;;;;5.78;5.18;;;;;;;;;;5093366;28;20123;-58
2022/06/26 02:50:04;;;;;;;8.23;4.82;;;;;;;;;;5091567;28;20507;-56
2022/06/26 02:52:32;;;;;;;6.72;5.18;;;;;;;;;;5093439;28;20491;-58
2022/06/26 02:55:00;;;;;;;5.13;4.30;;;;;;;;;;5092037;28;20048;-57
2022/06/26 02:57:28;;;;;;;7.03;4.78;;;;;;;;;;5091910;28;20119;-58
2022/06/26 02:59:57;;;;;;;4.95;4.38;;;;;;;;;;5091911;28;20044;-58
2022/06/26 03:02:24;;;;;;;5.68;5.07;;;;;;;;;;5091670;28;20074;-58
2022/06/26 03:05:00;;;;;;;5.15;4.35;;;;;;;;;;5092012;28;20032;-58
2022/06/26 03:07:27;;;;;;;6.60;4.53;;;;;;;;;;5091876;28;20051;-58
2022/06/26 03:09:57;;;;;;;5.28;4.78;;;;;;;;;;5092049;28;20039;-59
2022/06/26 03:12:26;;;;;;;7.18;4.88;;;;;;;;;;5092850;28;20364;-58
2022/06/26 03:14:53;;;;;;;5.93;5.38;;;;;;;;;;5092959;28;20152;-59
2022/06/26 03:17:21;;;;;;;5.53;4.82;;;;;;;;;;5092569;28;20072;-59
2022/06/26 03:19:49;;;;;;;5.70;5.10;;;;;;;;;;5091304;28;20059;-58
2022/06/26 03:22:16;;;;;;;4.95;4.45;;;;;;;;;;5092534;28;20043;-58
2022/06/26 03:24:43;;;;;;;6.65;5.65;;;;;;;;;;5091609;28;20368;-59
2022/06/26 03:27:10;;;;;;;6.28;4.90;;;;;;;;;;5073507;28;20068;-59
2022/06/26 03:29:37;;;;;;;5.82;4.80;;;;;;;;;;5072306;28;20043;-58
2022/06/26 03:32:07;;;;;;;6.80;4.82;;;;;;;;;;5072256;28;20052;-58
2022/06/26 03:34:52;;;;;;;6.65;4.57;;;;;;;;;;5070968;28;20045;-58
2022/06/26 03:37:20;;;;;;;5.35;4.63;;;;;;;;;;5072345;28;20071;-59
2022/06/26 03:39:47;;;;;;;5.68;4.65;;;;;;;;;;5072205;28;20044;-59
2022/06/26 03:42:14;;;;;;;5.93;4.07;;;;;;;;;;5070612;28;20530;-57
2022/06/26 03:44:42;;;;;;;10.70;7.93;;;;;;;;;;5071089;28;20037;-58
2022/06/26 03:47:09;;;;;;;46.47;31.00;;;;;;;;;;5071986;28;20384;-60
2022/06/26 03:49:37;;;;;;;76.30;49.20;;;;;;;;;;5071022;28;20455;-59
2022/06/26 03:52:05;;;;;;;7.70;6.72;;;;;;;;;;5070320;28;20102;-59
2022/06/26 03:54:34;;;;;;;6.53;4.82;;;;;;;;;;5070732;28;20072;-54
2022/06/26 03:57:01;;;;;;;6.30;4.88;;;;;;;;;;5072508;28;20500;-58
2022/06/26 03:59:29;;;;;;;4.95;4.43;;;;;;;;;;5070333;28;20032;-60
2022/06/26 04:02:00;;;;;;;4.95;4.45;;;;;;;;;;5070833;28;20082;-58
2022/06/26 04:04:29;;;;;;;5.95;4.50;;;;;;;;;;5054458;28;20040;-58
2022/06/26 04:06:57;;;;;;;6.15;4.35;;;;;;;;;;5072117;28;20040;-59
2022/06/26 04:09:35;;;;;;;5.53;4.65;;;;;;;;;;5070605;28;20097;-56
2022/06/26 04:12:03;;;;;;;5.00;4.25;;;;;;;;;;5070707;28;20072;-58
2022/06/26 04:14:34;;;;;;;168.75;120.32;;;;;;;;;;5070516;28;20044;-59
2022/06/26 04:17:02;;;;;;;18.95;12.80;;;;;;;;;;5072113;28;20040;-59
2022/06/26 04:19:30;;;;;;;6.32;4.90;;;;;;;;;;5070965;28;20037;-60
2022/06/26 04:21:58;;;;;;;8.23;4.60;;;;;;;;;;5092037;28;20839;-59
2022/06/26 04:24:26;;;;;;;5.75;4.75;;;;;;;;;;5092046;28;20178;-59
2022/06/26 04:26:53;;;;;;;4.85;3.88;;;;;;;;;;5090510;28;20044;-59
2022/06/26 04:29:21;;;;;;;7.40;4.47;;;;;;;;;;5091956;28;20051;-60
2022/06/26 04:31:48;;;;;;;6.35;4.38;;;;;;;;;;5090544;28;20499;-59
2022/06/26 04:34:16;;;;;;;5.60;4.30;;;;;;;;;;5090473;28;20028;-59
2022/06/26 04:36:43;;;;;;;4.72;4.07;;;;;;;;;;5090635;28;20110;-58
2022/06/26 04:39:17;;;;;;;46.03;29.08;;;;;;;;;;5074842;28;20040;-55
2022/06/26 04:41:48;;;;;;;7.55;5.75;;;;;;;;;;5091485;28;20102;-60
2022/06/26 04:44:18;;;;;;;5.40;3.70;;;;;;;;;;5090416;28;20134;-59
2022/06/26 04:46:52;;;;;;;4.65;4.15;;;;;;;;;;5090448;28;20040;-59
2022/06/26 04:49:24;;;;;;;4.97;4.00;;;;;;;;;;5090543;28;20048;-59
2022/06/26 04:51:51;;;;;;;4.80;3.92;;;;;;;;;;5091681;28;20072;-59
2022/06/26 04:54:45;;;;;;;5.15;3.90;;;;;;;;;;5090509;28;20097;-59
2022/06/26 04:57:13;;;;;;;6.30;3.65;;;;;;;;;;5091433;28;20047;-59
2022/06/26 04:59:45;;;;;;;5.28;3.67;;;;;;;;;;5090495;28;20097;-59
2022/06/26 05:02:13;;;;;;;4.43;3.70;;;;;;;;;;5091278;28;20044;-59
2022/06/26 05:04:46;;;;;;;4.10;3.38;;;;;;;;;;5091636;28;20036;-59
2022/06/26 05:07:16;;;;;;;8.88;3.83;;;;;;;;;;5091527;28;20131;-59
2022/06/26 05:09:45;;;;;;;4.85;3.67;;;;;;;;;;5090260;28;20040;-60
2022/06/26 05:12:12;;;;;;;14.80;10.02;;;;;;;;;;5092410;28;20039;-61
2022/06/26 05:15:04;;;;;;;4.70;3.92;;;;;;;;;;5075319;28;20460;-56
2022/06/26 05:17:36;;;;;;;5.45;3.05;;;;;;;;;;5094072;28;20050;-59
2022/06/26 05:20:06;;;;;;;4.88;3.22;;;;;;;;;;5093616;28;20491;-59
2022/06/26 05:22:34;;;;;;;4.53;3.40;;;;;;;;;;5093682;28;20131;-59
2022/06/26 05:25:02;;;;;;;4.28;3.05;;;;;;;;;;5094014;28;20052;-60
2022/06/26 05:27:30;;;;;;;6.28;3.60;;;;;;;;;;5095107;28;20040;-59
2022/06/26 05:29:57;;;;;;;3.60;3.05;;;;;;;;;;5094819;28;20085;-59
2022/06/26 05:32:25;;;;;;;5.50;3.15;;;;;;;;;;5094896;28;20067;-58
2022/06/26 05:34:54;;;;;;;4.15;3.20;;;;;;;;;;5093567;28;20036;-58
2022/06/26 05:37:24;;;;;;;4.57;2.90;;;;;;;;;;5093522;28;20052;-59
2022/06/26 05:39:52;;;;;;;3.58;2.95;;;;;;;;;;5093676;28;20184;-59
2022/06/26 05:42:21;;;;;;;3.97;3.00;;;;;;;;;;5093146;28;20044;-59
2022/06/26 05:44:48;;;;;;;3.85;2.72;;;;;;;;;;5093445;28;20044;-59
2022/06/26 05:47:18;;;;;;;3.45;2.65;;;;;;;;;;5093089;28;20040;-59
2022/06/26 05:50:05;;;;;;;17.42;11.20;;;;;;;;;;5094652;28;20178;-53
2022/06/26 05:52:56;;;;;;;6.32;4.00;;;;;;;;;;5074758;28;20056;-59
2022/06/26 05:55:46;;;;;;;3.75;2.78;;;;;;;;;;5088666;28;20148;-59
2022/06/26 05:58:31;;;;;;;3.83;2.90;;;;;;;;;;5093292;28;20518;-58
2022/06/26 06:01:28;;;;;;;3.70;2.70;;;;;;;;;;5085063;28;20056;-59
2022/06/26 06:04:04;;;;;;;4.30;2.70;;;;;;;;;;5092602;28;20044;-58
2022/06/26 06:06:32;;;;;;;5.03;2.63;;;;;;;;;;5093183;28;20036;-59
2022/06/26 06:08:59;;;;;;;3.47;2.70;;;;;;;;;;5093192;28;20113;-59
2022/06/26 06:11:26;;;;;;;6.05;2.63;;;;;;;;;;5092724;28;20048;-58
2022/06/26 06:13:54;;;;;;;4.55;2.45;;;;;;;;;;5092766;28;20097;-60
2022/06/26 06:16:24;;;;;;;5.10;3.03;;;;;;;;;;5092413;28;20047;-58
2022/06/26 06:18:53;;;;;;;2.95;2.65;;;;;;;;;;5092704;28;20046;-59
2022/06/26 06:21:26;;;;;;;4.15;2.72;;;;;;;;;;5092407;28;20040;-58
2022/06/26 06:23:53;;;;;;;4.70;2.78;;;;;;;;;;5093468;28;20044;-59
2022/06/26 06:26:20;;;;;;;4.30;2.50;;;;;;;;;;5092413;28;20054;-59
2022/06/26 06:28:49;;;;;;;3.67;2.40;;;;;;;;;;5092523;28;20503;-59
2022/06/26 06:31:17;;;;;;;4.95;2.20;;;;;;;;;;5092310;28;20040;-59
2022/06/26 06:33:47;;;;;;;3.85;2.78;;;;;;;;;;5092306;28;20047;-59
2022/06/26 06:36:16;;;;;;;27.55;17.45;;;;;;;;;;5092190;28;20036;-59
2022/06/26 06:38:44;;;;;;;11.05;6.60;;;;;;;;;;5093284;28;20491;-58
2022/06/26 06:41:11;;;;;;;5.38;2.42;;;;;;;;;;5092118;28;20040;-59
2022/06/26 06:43:58;;;;;;;4.20;2.47;;;;;;;;;;5091757;28;20140;-59
2022/06/26 06:46:46;;;;;;;3.10;2.42;;;;;;;;;;5093264;28;20040;-59
2022/06/26 06:49:19;;;;;;;3.00;2.08;;;;;;;;;;5092155;28;20488;-58
2022/06/26 06:51:49;;;;;;;6.15;2.90;;;;;;;;;;5092958;28;20098;-58
2022/06/26 06:54:17;;;;;;;2.92;2.20;;;;;;;;;;5093298;28;20067;-57
2022/06/26 06:56:45;;;;;;;4.53;2.80;;;;;;;;;;5093182;28;20542;-59
2022/06/26 06:59:14;;;;;;;3.60;2.60;;;;;;;;;;5093160;28;20048;-59
2022/06/26 07:01:43;;;;;;;2.65;2.25;;;;;;;;;;5092026;28;20043;-60
2022/06/26 07:04:11;;;;;;;3.78;2.10;;;;;;;;;;5092802;28;20075;-58
2022/06/26 07:06:38;;;;;;;3.33;2.17;;;;;;;;;;5093123;28;20078;-56
2022/06/26 07:09:05;;;;;;;3.60;2.67;;;;;;;;;;5091690;28;20052;-59
2022/06/26 07:11:33;;;;;;;5.82;2.65;;;;;;;;;;5093249;28;20040;-59
2022/06/26 07:14:01;;;;;;;2.95;2.03;;;;;;;;;;5093171;28;20035;-58
2022/06/26 07:16:28;;;;;;;3.05;2.28;;;;;;;;;;5092719;28;20487;-59
2022/06/26 07:18:58;;;;;;;4.00;2.60;;;;;;;;;;5092412;28;20038;-59
2022/06/26 07:21:26;;;;;;;21.45;11.75;;;;;;;;;;5091383;28;20087;-59
2022/06/26 07:23:53;;;;;;;6.28;3.85;;;;;;;;;;5091479;28;20051;-59
2022/06/26 07:26:56;;;;;;;4.20;2.55;;;;;;;;;;5030544;28;20045;-59
2022/06/26 07:29:23;;;;;;;3.53;2.50;;;;;;;;;;5074954;28;20036;-59
2022/06/26 07:31:51;;;;;;;4.38;2.55;;;;;;;;;;5091248;28;20036;-59
2022/06/26 07:34:22;;;;;;;4.18;3.00;;;;;;;;;;5090563;28;20056;-59
2022/06/26 07:36:51;;;;;;;3.40;2.30;;;;;;;;;;5091210;28;20051;-59
2022/06/26 07:39:20;;;;;;;4.43;2.70;;;;;;;;;;5091334;28;20048;-58
2022/06/26 07:41:49;;;;;;;4.22;2.85;;;;;;;;;;5090977;28;20043;-59
2022/06/26 07:44:18;;;;;;;3.33;2.40;;;;;;;;;;5090901;28;20047;-59
2022/06/26 07:46:47;;;;;;;3.13;2.45;;;;;;;;;;5091129;28;20036;-59
2022/06/26 07:49:23;;;;;;;5.60;3.72;;;;;;;;;;5090990;28;20123;-58
2022/06/26 07:51:59;;;;;;;6.22;4.22;;;;;;;;;;5091004;28;20074;-59
2022/06/26 07:54:27;;;;;;;3.95;2.75;;;;;;;;;;5091713;28;20032;-59
2022/06/26 07:56:54;;;;;;;4.00;2.90;;;;;;;;;;5092148;28;20067;-59
2022/06/26 07:59:21;;;;;;;6.80;3.08;;;;;;;;;;5092346;28;20047;-59
2022/06/26 08:01:48;;;;;;;4.18;2.63;;;;;;;;;;5092284;28;20043;-59
2022/06/26 08:04:16;;;;;;;3.20;2.67;;;;;;;;;;5091943;28;20045;-57
2022/06/26 08:06:43;;;;;;;5.35;2.63;;;;;;;;;;5092088;28;20521;-59
2022/06/26 08:09:10;;;;;;;6.30;2.80;;;;;;;;;;5091871;28;20395;-58
2022/06/26 08:11:39;;;;;;;5.50;2.75;;;;;;;;;;5090679;28;20039;-59
2022/06/26 08:14:06;;;;;;;5.05;2.90;;;;;;;;;;5091895;28;20040;-59
2022/06/26 08:16:34;;;;;;;4.70;2.88;;;;;;;;;;5092304;28;20040;-59
2022/06/26 08:19:01;;;;;;;4.10;2.58;;;;;;;;;;5091861;28;20048;-59
2022/06/26 08:24:14;;;;;;;3.72;2.45;;;;;;;;;;5091469;28;20071;-58
2022/06/26 08:26:44;;;;;;;4.95;2.90;;;;;;;;;;5092047;28;20028;-59
2022/06/26 08:29:11;;;;;;;108.80;63.95;;;;;;;;;;5092036;28;20507;-60
2022/06/26 08:31:38;;;;;;;11.25;6.18;;;;;;;;;;5091813;28;20593;-58
2022/06/26 08:34:05;;;;;;;4.20;3.00;;;;;;;;;;5091874;28;20090;-58
2022/06/26 08:36:33;;;;;;;3.75;2.97;;;;;;;;;;5092058;28;20425;-59
2022/06/26 08:39:03;;;;;;;4.43;2.92;;;;;;;;;;5091854;28;20036;-59
2022/06/26 08:41:36;;;;;;;4.78;2.70;;;;;;;;;;5092021;28;20048;-58
2022/06/26 08:44:04;;;;;;;3.25;2.80;;;;;;;;;;5091911;28;20499;-59
2022/06/26 08:46:37;;;;;;;6.25;2.72;;;;;;;;;;5094860;28;20048;-58
2022/06/26 08:49:10;;;;;;;4.38;2.90;;;;;;;;;;5095895;28;20038;-59
2022/06/26 08:51:43;;;;;;;3.63;2.88;;;;;;;;;;5097675;28;20079;-59
2022/06/26 08:54:12;;;;;;;4.82;3.00;;;;;;;;;;5115713;28;20039;-59
2022/06/26 08:56:42;;;;;;;5.30;3.00;;;;;;;;;;5116081;28;20371;-59
2022/06/26 08:59:13;;;;;;;3.33;2.75;;;;;;;;;;5115806;28;20044;-59
2022/06/26 09:01:42;;;;;;;5.65;3.10;;;;;;;;;;5115802;28;20039;-59
2022/06/26 09:04:11;;;;;;;3.97;2.67;;;;;;;;;;5115595;28;20047;-59
2022/06/26 09:06:41;;;;;;;61.30;48.83;;;;;;;;;;5115947;28;20044;-60
2022/06/26 09:09:27;;;;;;;5.25;4.18;;;;;;;;;;5115754;28;20566;-59
2022/06/26 09:11:57;;;;;;;4.53;2.63;;;;;;;;;;5115581;28;20256;-59
2022/06/26 09:14:26;;;;;;;5.38;2.47;;;;;;;;;;5115762;28;20190;-59
2022/06/26 09:16:54;;;;;;;4.35;2.50;;;;;;;;;;5115717;28;20035;-59
2022/06/26 09:19:26;;;;;;;4.10;2.50;;;;;;;;;;5115356;28;20047;-58
2022/06/26 09:22:05;;;;;;;5.97;2.80;;;;;;;;;;5115364;28;20042;-59
2022/06/26 09:24:36;;;;;;;3.70;2.72;;;;;;;;;;5115353;28;20482;-58
2022/06/26 09:27:10;;;;;;;4.25;2.72;;;;;;;;;;5115528;28;20085;-59
2022/06/26 09:29:47;;;;;;;4.38;2.97;;;;;;;;;;5115626;28;20040;-58
2022/06/26 09:32:15;;;;;;;4.47;2.42;;;;;;;;;;5115072;28;20054;-59
2022/06/26 09:34:47;;;;;;;5.90;2.50;;;;;;;;;;5115223;28;20563;-59
2022/06/26 09:37:16;;;;;;;5.25;2.38;;;;;;;;;;5115340;28;20040;-59
2022/06/26 09:40:04;;;;;;;4.78;2.40;;;;;;;;;;5115308;28;20084;-56
2022/06/26 09:42:33;;;;;;;3.97;2.63;;;;;;;;;;5114053;28;20048;-58
2022/06/26 09:45:02;;;;;;;3.13;2.53;;;;;;;;;;5111683;28;20044;-58
2022/06/26 09:47:31;;;;;;;3.38;2.35;;;;;;;;;;5111153;28;20043;-58
2022/06/26 09:50:00;;;;;;;4.53;2.67;;;;;;;;;;5111163;28;20498;-59
2022/06/26 09:52:29;;;;;;;3.75;2.75;;;;;;;;;;5111704;28;20044;-58
2022/06/26 09:55:03;;;;;;;3.97;2.72;;;;;;;;;;5112010;28;20487;-59
2022/06/26 09:57:32;;;;;;;4.75;2.35;;;;;;;;;;5111821;28;20042;-58
2022/06/26 10:00:00;;;;;;;3.58;2.45;;;;;;;;;;5114731;28;20053;-58
2022/06/26 10:08:13;;;;;;;4.55;3.22;;;;;;;;;;5114438;28;20043;-59
2022/06/26 10:10:41;;;;;;;5.28;3.88;;;;;;;;;;5114745;28;20127;-58
2022/06/26 10:13:10;;;;;;;2.92;2.20;;;;;;;;;;5114623;28;20047;-59
2022/06/26 10:16:01;;;;;;;3.22;2.45;;;;;;;;;;5114438;28;20036;-58
2022/06/26 10:18:43;;;;;;;3.38;2.55;;;;;;;;;;5073084;28;20054;-59
2022/06/26 10:21:13;;;;;;;3.33;2.55;;;;;;;;;;5114354;28;20047;-59
2022/06/26 10:23:42;;;;;;;4.55;2.40;;;;;;;;;;5114323;28;20043;-59
2022/06/26 10:26:17;;;;;;;3.88;2.75;;;;;;;;;;5114331;28;20036;-59
2022/06/26 10:28:59;;;;;;;6.38;2.92;;;;;;;;;;5114014;28;20078;-59
2022/06/26 10:31:48;;;;;;;3.13;2.22;;;;;;;;;;5114029;28;20067;-59
2022/06/26 10:34:23;;;;;;;4.15;2.60;;;;;;;;;;5114131;28;20046;-58
2022/06/26 10:37:10;;;;;;;5.03;2.75;;;;;;;;;;5114005;28;20065;-59
2022/06/26 10:39:43;;;;;;;2.97;2.50;;;;;;;;;;5113952;28;20027;-59
2022/06/26 10:45:29;;;;;;;89.07;55.90;;;;;;;;;;5112474;28;20063;-59
2022/06/26 10:47:59;;;;;;;10.57;8.02;;;;;;;;;;5111794;28;20130;-59
2022/06/26 10:50:35;;;;;;;4.25;2.20;;;;;;;;;;5111766;28;20058;-58
2022/06/26 10:53:15;;;;;;;2.42;2.10;;;;;;;;;;5093908;28;20561;-59
2022/06/26 10:55:54;;;;;;;6.63;2.95;;;;;;;;;;5111488;28;20528;-59
2022/06/26 10:58:31;;;;;;;4.57;2.40;;;;;;;;;;5093319;28;20044;-60
2022/06/26 11:01:01;;;;;;;3.20;2.42;;;;;;;;;;5112972;28;20143;-59
2022/06/26 11:03:30;;;;;;;3.70;2.55;;;;;;;;;;5113537;28;20060;-59
2022/06/26 11:06:04;;;;;;;3.22;2.25;;;;;;;;;;5112989;28;20040;-59
2022/06/26 11:08:37;;;;;;;3.80;2.55;;;;;;;;;;5113050;28;20394;-59
2022/06/26 11:11:07;;;;;;;3.60;2.80;;;;;;;;;;5113440;28;20036;-60
2022/06/26 11:13:46;;;;;;;4.53;2.33;;;;;;;;;;5113764;28;20046;-59
2022/06/26 11:16:16;;;;;;;4.70;2.60;;;;;;;;;;5095380;28;20042;-57
2022/06/26 11:18:43;;;;;;;9.50;6.93;;;;;;;;;;5113260;28;20047;-59
2022/06/26 11:21:15;;;;;;;4.05;2.47;;;;;;;;;;5113018;28;20050;-59
2022/06/26 11:23:53;;;;;;;3.60;2.50;;;;;;;;;;5113219;28;20371;-58
2022/06/26 11:26:36;;;;;;;3.08;2.00;;;;;;;;;;5112918;28;20398;-59
2022/06/26 11:29:38;;;;;;;4.57;2.10;;;;;;;;;;5113280;28;20039;-59
2022/06/26 11:32:53;;;;;;;2.72;2.00;;;;;;;;;;5112919;28;20040;-58
2022/06/26 11:35:37;;;;;;;5.57;2.10;;;;;;;;;;5113023;28;20047;-59
2022/06/26 11:38:21;;;;;;;3.42;2.20;;;;;;;;;;5112870;28;20032;-59
2022/06/26 11:41:08;;;;;;;3.55;2.28;;;;;;;;;;5112334;28;20038;-59
2022/06/26 11:43:47;;;;;;;3.88;2.33;;;;;;;;;;5112506;28;20122;-59
2022/06/26 11:46:32;;;;;;;3.38;2.13;;;;;;;;;;5112457;28;20036;-59
2022/06/26 11:49:18;;;;;;;9.27;6.90;;;;;;;;;;5094403;28;20522;-59
2022/06/26 11:52:04;;;;;;;4.53;2.70;;;;;;;;;;5111987;28;20126;-58
2022/06/26 11:54:58;;;;;;;3.28;2.30;;;;;;;;;;5112595;28;20105;-58
2022/06/26 11:57:50;;;;;;;5.57;2.47;;;;;;;;;;5112241;28;20047;-60
2022/06/26 12:00:23;;;;;;;2.80;2.00;;;;;;;;;;5112198;28;20071;-59
2022/06/26 12:02:57;;;;;;;2.80;2.10;;;;;;;;;;5111108;28;20057;-59
2022/06/26 12:05:27;;;;;;;4.15;2.60;;;;;;;;;;5110568;28;20662;-59
2022/06/26 12:07:59;;;;;;;3.70;2.13;;;;;;;;;;5093230;28;20110;-59
2022/06/26 12:10:40;;;;;;;3.60;2.60;;;;;;;;;;5111620;28;20575;-59
2022/06/26 12:13:30;;;;;;;4.65;2.33;;;;;;;;;;5094734;28;20050;-58
2022/06/26 12:16:09;;;;;;;2.97;2.28;;;;;;;;;;5111868;28;20039;-59
2022/06/26 12:18:49;;;;;;;4.45;2.10;;;;;;;;;;5111536;28;20028;-59
2022/06/26 12:21:28;;;;;;;4.00;2.03;;;;;;;;;;5114514;28;20039;-59
2022/06/26 12:24:04;;;;;;;5.10;2.28;;;;;;;;;;5116012;28;20036;-58
2022/06/26 12:26:48;;;;;;;3.17;2.08;;;;;;;;;;5116032;28;20028;-59
2022/06/26 12:29:30;;;;;;;3.88;2.17;;;;;;;;;;5116197;28;20035;-59
2022/06/26 12:32:03;;;;;;;4.38;2.05;;;;;;;;;;5116444;28;20455;-60
2022/06/26 12:34:35;;;;;;;2.72;2.10;;;;;;;;;;5116643;28;20114;-59
2022/06/26 12:37:15;;;;;;;4.20;2.10;;;;;;;;;;5116219;28;20402;-58
2022/06/26 12:39:55;;;;;;;2.72;2.17;;;;;;;;;;5116241;28;20031;-59
2022/06/26 12:42:26;;;;;;;3.88;2.20;;;;;;;;;;5116163;28;20040;-59
2022/06/26 12:44:53;;;;;;;4.03;2.20;;;;;;;;;;5116183;28;20036;-58
2022/06/26 12:47:20;;;;;;;5.93;1.83;;;;;;;;;;5116202;28;20043;-59
2022/06/26 12:49:47;;;;;;;3.03;2.00;;;;;;;;;;5116209;28;20036;-59
2022/06/26 12:52:22;;;;;;;3.22;2.13;;;;;;;;;;5115534;28;20048;-58
2022/06/26 12:54:51;;;;;;;3.00;2.33;;;;;;;;;;5116086;28;20040;-58
2022/06/26 12:57:18;;;;;;;4.50;2.40;;;;;;;;;;5115965;28;20031;-59
2022/06/26 12:59:45;;;;;;;3.17;2.28;;;;;;;;;;5115800;28;20055;-59
2022/06/26 13:02:13;;;;;;;4.22;2.20;;;;;;;;;;5115736;28;20490;-58
2022/06/26 13:04:40;;;;;;;3.67;2.30;;;;;;;;;;5097673;28;20062;-59
2022/06/26 13:07:08;;;;;;;3.50;2.22;;;;;;;;;;5097747;28;20044;-60
2022/06/26 13:09:35;;;;;;;4.75;2.25;;;;;;;;;;5096709;28;20521;-58
2022/06/26 13:12:03;;;;;;;3.10;2.13;;;;;;;;;;5115853;28;20050;-58
2022/06/26 13:14:31;;;;;;;2.88;2.03;;;;;;;;;;5115835;28;20220;-57
2022/06/26 13:16:58;;;;;;;3.53;2.00;;;;;;;;;;5097487;28;20039;-59
2022/06/26 13:19:25;;;;;;;4.25;1.95;;;;;;;;;;5115193;28;20028;-59
2022/06/26 13:21:53;;;;;;;2.13;1.80;;;;;;;;;;5115062;28;20495;-59
2022/06/26 13:24:20;;;;;;;2.95;1.85;;;;;;;;;;5115102;28;20035;-58
2022/06/26 13:26:49;;;;;;;2.58;1.65;;;;;;;;;;5115488;28;20043;-61
2022/06/26 13:29:17;;;;;;;4.53;2.75;;;;;;;;;;5097092;28;20475;-55
2022/06/26 13:31:45;;;;;;;3.40;2.10;;;;;;;;;;5095964;28;20043;-59
2022/06/26 13:34:13;;;;;;;5.45;2.30;;;;;;;;;;5114191;28;20742;-59
2022/06/26 13:36:41;;;;;;;3.45;2.35;;;;;;;;;;5115268;28;20518;-59
2022/06/26 13:39:08;;;;;;;2.42;1.60;;;;;;;;;;5096305;28;20122;-56
2022/06/26 13:41:36;;;;;;;3.28;2.03;;;;;;;;;;5115007;28;20047;-51
2022/06/26 13:44:03;;;;;;;4.03;2.35;;;;;;;;;;5114859;28;20376;-59
2022/06/26 13:46:30;;;;;;;2.88;1.80;;;;;;;;;;5114873;28;20040;-59
2022/06/26 13:48:58;;;;;;;3.95;1.70;;;;;;;;;;5114847;28;20050;-60
2022/06/26 13:51:27;;;;;;;2.70;1.63;;;;;;;;;;5113734;28;20071;-59
2022/06/26 13:53:55;;;;;;;2.53;1.52;;;;;;;;;;5114586;28;20075;-60
2022/06/26 13:56:22;;;;;;;3.83;1.77;;;;;;;;;;5114432;28;20772;-59
2022/06/26 13:58:49;;;;;;;3.97;1.63;;;;;;;;;;5114788;28;20044;-60
2022/06/26 14:01:16;;;;;;;3.47;1.77;;;;;;;;;;5113784;28;20399;-59
2022/06/26 14:03:44;;;;;;;3.53;2.03;;;;;;;;;;5112760;28;20499;-59
2022/06/26 14:06:12;;;;;;;4.68;1.98;;;;;;;;;;5112335;28;20089;-60
2022/06/26 14:08:39;;;;;;;3.72;1.85;;;;;;;;;;5112654;28;20067;-60
2022/06/26 14:11:07;;;;;;;3.28;1.55;;;;;;;;;;5112365;28;20623;-60
2022/06/26 14:13:34;;;;;;;2.15;1.52;;;;;;;;;;5112392;28;20127;-59
2022/06/26 14:16:02;;;;;;;2.85;1.92;;;;;;;;;;5113257;28;20050;-60
2022/06/26 14:18:29;;;;;;;7.43;1.98;;;;;;;;;;5114406;28;20043;-59
2022/06/26 14:20:57;;;;;;;4.32;2.00;;;;;;;;;;5114306;28;20096;-59
2022/06/26 14:26:10;;;;;;;4.28;2.15;;;;;;;;;;5113834;28;20035;-60
2022/06/26 14:28:38;;;;;;;2.95;2.00;;;;;;;;;;5096490;28;20040;-60
2022/06/26 14:31:09;;;;;;;4.38;2.15;;;;;;;;;;5095958;28;20035;-51
2022/06/26 14:33:36;;;;;;;4.55;2.25;;;;;;;;;;5113631;28;20047;-58
2022/06/26 14:36:05;;;;;;;5.43;2.03;;;;;;;;;;5114182;28;20533;-59
2022/06/26 14:38:35;;;;;;;3.33;2.20;;;;;;;;;;5096248;28;20513;-59
2022/06/26 14:41:10;;;;;;;3.45;2.08;;;;;;;;;;5114169;28;20040;-57
2022/06/26 14:43:40;;;;;;;2.90;1.85;;;;;;;;;;5113610;28;20043;-59
2022/06/26 14:46:08;;;;;;;2.35;1.77;;;;;;;;;;5095653;28;20039;-60
2022/06/26 14:48:35;;;;;;;3.20;2.10;;;;;;;;;;5114010;28;20040;-57
2022/06/26 14:51:02;;;;;;;3.08;1.73;;;;;;;;;;5113894;28;20152;-60
2022/06/26 14:53:30;;;;;;;3.65;1.80;;;;;;;;;;5113713;28;20036;-60
2022/06/26 14:55:58;;;;;;;4.57;1.90;;;;;;;;;;5113638;28;20417;-60
2022/06/26 14:58:26;;;;;;;3.45;1.80;;;;;;;;;;5113253;28;20096;-60
2022/06/26 15:00:54;;;;;;;3.60;2.20;;;;;;;;;;5113646;28;20097;-60
2022/06/26 15:03:22;;;;;;;4.97;1.90;;;;;;;;;;5113501;28;20042;-60
2022/06/26 15:05:50;;;;;;;2.28;1.90;;;;;;;;;;5113175;28;20036;-61
2022/06/26 15:08:22;;;;;;;;;;;;;;;;;;5113751;28;20040;-60
2022/06/26 15:10:49;;;;;;;3.55;2.30;;;;;;;;;;5113445;28;19996;-61
2022/06/26 15:13:16;;;;;;;5.68;2.30;;;;;;;;;;5094352;28;20046;-60
2022/06/26 15:15:43;;;;;;;4.47;1.80;;;;;;;;;;5113085;28;20061;-60
2022/06/26 15:18:11;;;;;;;3.65;2.10;;;;;;;;;;5113100;28;20085;-60
2022/06/26 15:20:38;;;;;;;5.38;1.98;;;;;;;;;;5113183;28;20035;-60
2022/06/26 15:23:06;;;;;;;2.05;1.80;;;;;;;;;;5095496;28;20035;-60
2022/06/26 15:25:33;;;;;;;4.78;1.92;;;;;;;;;;5113419;28;20051;-61